sensor_id;sensor_type;location;lat;lon;timestamp;temperature;humidity
9658;DHT22;4867;48.112;11.622;2022-08-19T00:01:58;18.60;99.90
9658;DHT22;4867;48.112;11.622;2022-08-19T00:04:31;18.60;99.90
9658;DHT22;4867;48.112;11.622;2022-08-19T00:06:59;18.60;99.90
9658;DHT22;4867;48.112;11.622;2022-08-19T00:09:27;18.60;99.90
9658;DHT22;4867;48.112;11.622;2022-08-19T00:11:56;18.60;99.90
9658;DHT22;4867;48.112;11.622;2022-08-19T00:14:25;18.60;99.90
9658;DHT22;4867;48.112;11.622;2022-08-19T00:16:53;18.60;99.90
9658;DHT22;4867;48.112;11.622;2022-08-19T00:19:21;18.60;99.90
9658;DHT22;4867;48.112;11.622;2022-08-19T00:21:49;18.60;99.90
9658;DHT22;4867;48.112;11.622;2022-08-19T00:24:16;18.60;99.90
9658;DHT22;4867;48.112;11.622;2022-08-19T00:26:44;18.60;99.90
9658;DHT22;4867;48.112;11.622;2022-08-19T00:29:14;18.60;99.90
9658;DHT22;4867;48.112;11.622;2022-08-19T00:31:44;18.50;99.90
9658;DHT22;4867;48.112;11.622;2022-08-19T00:34:14;18.60;99.90
9658;DHT22;4867;48.112;11.622;2022-08-19T00:36:46;18.60;99.90
9658;DHT22;4867;48.112;11.622;2022-08-19T00:39:15;18.50;99.90
9658;DHT22;4867;48.112;11.622;2022-08-19T00:41:44;18.50;99.90
9658;DHT22;4867;48.112;11.622;2022-08-19T00:46:43;18.60;99.90
9658;DHT22;4867;48.112;11.622;2022-08-19T00:49:50;18.50;99.90
9658;DHT22;4867;48.112;11.622;2022-08-19T00:52:27;18.50;99.90
9658;DHT22;4867;48.112;11.622;2022-08-19T00:54:59;18.40;99.90
9658;DHT22;4867;48.112;11.622;2022-08-19T00:57:30;18.40;99.90
9658;DHT22;4867;48.112;11.622;2022-08-19T00:59:59;18.40;99.90
9658;DHT22;4867;48.112;11.622;2022-08-19T01:02:30;18.40;99.90
9658;DHT22;4867;48.112;11.622;2022-08-19T01:04:58;18.30;99.90
9658;DHT22;4867;48.112;11.622;2022-08-19T01:07:25;18.30;99.90
9658;DHT22;4867;48.112;11.622;2022-08-19T01:09:53;18.30;99.90
9658;DHT22;4867;48.112;11.622;2022-08-19T01:12:22;18.20;99.90
9658;DHT22;4867;48.112;11.622;2022-08-19T01:14:50;18.20;99.90
9658;DHT22;4867;48.112;11.622;2022-08-19T01:17:19;18.20;99.90
9658;DHT22;4867;48.112;11.622;2022-08-19T01:19:49;18.20;99.90
9658;DHT22;4867;48.112;11.622;2022-08-19T01:22:42;18.20;99.90
9658;DHT22;4867;48.112;11.622;2022-08-19T01:25:10;18.20;99.90
9658;DHT22;4867;48.112;11.622;2022-08-19T01:27:43;18.20;99.90
9658;DHT22;4867;48.112;11.622;2022-08-19T01:30:17;18.20;99.90
9658;DHT22;4867;48.112;11.622;2022-08-19T01:32:45;18.30;99.90
9658;DHT22;4867;48.112;11.622;2022-08-19T01:35:12;18.30;99.90
9658;DHT22;4867;48.112;11.622;2022-08-19T01:37:48;18.30;99.90
9658;DHT22;4867;48.112;11.622;2022-08-19T01:40:17;18.30;99.90
9658;DHT22;4867;48.112;11.622;2022-08-19T01:42:50;18.40;99.90
9658;DHT22;4867;48.112;11.622;2022-08-19T01:45:19;18.50;99.90
9658;DHT22;4867;48.112;11.622;2022-08-19T01:47:48;18.50;99.90
9658;DHT22;4867;48.112;11.622;2022-08-19T01:50:30;18.50;99.90
9658;DHT22;4867;48.112;11.622;2022-08-19T01:52:57;18.50;99.90
9658;DHT22;4867;48.112;11.622;2022-08-19T01:55:32;18.50;99.90
9658;DHT22;4867;48.112;11.622;2022-08-19T01:58:02;18.50;99.90
9658;DHT22;4867;48.112;11.622;2022-08-19T02:00:32;18.60;99.90
9658;DHT22;4867;48.112;11.622;2022-08-19T02:02:59;18.60;99.90
9658;DHT22;4867;48.112;11.622;2022-08-19T02:05:27;18.50;99.90
9658;DHT22;4867;48.112;11.622;2022-08-19T02:07:57;18.60;99.90
9658;DHT22;4867;48.112;11.622;2022-08-19T02:10:25;18.50;99.90
9658;DHT22;4867;48.112;11.622;2022-08-19T02:12:52;18.50;99.90
9658;DHT22;4867;48.112;11.622;2022-08-19T02:15:20;18.50;99.90
9658;DHT22;4867;48.112;11.622;2022-08-19T02:17:48;18.50;99.90
9658;DHT22;4867;48.112;11.622;2022-08-19T02:20:16;18.60;99.90
9658;DHT22;4867;48.112;11.622;2022-08-19T02:22:44;18.60;99.90
9658;DHT22;4867;48.112;11.622;2022-08-19T02:25:12;18.60;99.90
9658;DHT22;4867;48.112;11.622;2022-08-19T02:27:40;18.60;99.90
9658;DHT22;4867;48.112;11.622;2022-08-19T02:30:09;18.60;99.90
9658;DHT22;4867;48.112;11.622;2022-08-19T02:32:40;18.60;99.90
9658;DHT22;4867;48.112;11.622;2022-08-19T02:35:20;18.60;99.90
9658;DHT22;4867;48.112;11.622;2022-08-19T02:37:48;18.60;99.90
9658;DHT22;4867;48.112;11.622;2022-08-19T02:40:36;18.50;99.90
9658;DHT22;4867;48.112;11.622;2022-08-19T02:43:08;18.50;99.90
9658;DHT22;4867;48.112;11.622;2022-08-19T02:45:37;18.40;99.90
9658;DHT22;4867;48.112;11.622;2022-08-19T02:48:07;18.40;99.90
9658;DHT22;4867;48.112;11.622;2022-08-19T02:50:49;18.30;99.90
9658;DHT22;4867;48.112;11.622;2022-08-19T02:53:26;18.30;99.90
9658;DHT22;4867;48.112;11.622;2022-08-19T02:55:53;18.20;99.90
9658;DHT22;4867;48.112;11.622;2022-08-19T02:58:21;18.30;99.90
9658;DHT22;4867;48.112;11.622;2022-08-19T03:00:52;18.30;99.90
9658;DHT22;4867;48.112;11.622;2022-08-19T03:03:20;18.20;99.90
9658;DHT22;4867;48.112;11.622;2022-08-19T03:05:47;18.30;99.90
9658;DHT22;4867;48.112;11.622;2022-08-19T03:08:23;18.30;99.90
9658;DHT22;4867;48.112;11.622;2022-08-19T03:10:50;18.20;99.90
9658;DHT22;4867;48.112;11.622;2022-08-19T03:13:19;18.20;99.90
9658;DHT22;4867;48.112;11.622;2022-08-19T03:15:48;18.20;99.90
9658;DHT22;4867;48.112;11.622;2022-08-19T03:18:15;18.20;99.90
9658;DHT22;4867;48.112;11.622;2022-08-19T03:20:48;18.20;99.90
9658;DHT22;4867;48.112;11.622;2022-08-19T03:23:16;18.20;99.90
9658;DHT22;4867;48.112;11.622;2022-08-19T03:25:46;18.20;99.90
9658;DHT22;4867;48.112;11.622;2022-08-19T03:28:33;18.30;99.90
9658;DHT22;4867;48.112;11.622;2022-08-19T03:33:31;18.40;99.90
9658;DHT22;4867;48.112;11.622;2022-08-19T03:36:06;18.40;99.90
9658;DHT22;4867;48.112;11.622;2022-08-19T03:38:38;18.40;99.90
9658;DHT22;4867;48.112;11.622;2022-08-19T03:41:09;18.40;99.90
9658;DHT22;4867;48.112;11.622;2022-08-19T03:43:39;18.30;99.90
9658;DHT22;4867;48.112;11.622;2022-08-19T03:46:18;18.30;99.90
9658;DHT22;4867;48.112;11.622;2022-08-19T03:48:48;18.40;99.90
9658;DHT22;4867;48.112;11.622;2022-08-19T03:53:58;18.40;99.90
9658;DHT22;4867;48.112;11.622;2022-08-19T03:56:26;18.50;99.90
9658;DHT22;4867;48.112;11.622;2022-08-19T03:58:55;18.40;99.90
9658;DHT22;4867;48.112;11.622;2022-08-19T04:01:26;18.30;99.90
9658;DHT22;4867;48.112;11.622;2022-08-19T04:04:01;18.40;99.90
9658;DHT22;4867;48.112;11.622;2022-08-19T04:06:32;18.40;99.90
9658;DHT22;4867;48.112;11.622;2022-08-19T04:09:03;18.40;99.90
9658;DHT22;4867;48.112;11.622;2022-08-19T04:11:35;18.40;99.90
9658;DHT22;4867;48.112;11.622;2022-08-19T04:14:11;18.40;99.90
9658;DHT22;4867;48.112;11.622;2022-08-19T04:16:38;18.50;99.90
9658;DHT22;4867;48.112;11.622;2022-08-19T04:19:06;18.40;99.90
9658;DHT22;4867;48.112;11.622;2022-08-19T04:21:34;18.50;99.90
9658;DHT22;4867;48.112;11.622;2022-08-19T04:24:01;18.50;99.90
9658;DHT22;4867;48.112;11.622;2022-08-19T04:26:34;18.60;99.90
9658;DHT22;4867;48.112;11.622;2022-08-19T04:29:12;18.60;99.90
9658;DHT22;4867;48.112;11.622;2022-08-19T04:31:40;18.60;99.90
9658;DHT22;4867;48.112;11.622;2022-08-19T04:34:09;18.60;99.90
9658;DHT22;4867;48.112;11.622;2022-08-19T04:36:38;18.60;99.90
9658;DHT22;4867;48.112;11.622;2022-08-19T04:39:11;18.60;99.90
9658;DHT22;4867;48.112;11.622;2022-08-19T04:41:40;18.70;99.90
9658;DHT22;4867;48.112;11.622;2022-08-19T04:44:26;18.60;99.90
9658;DHT22;4867;48.112;11.622;2022-08-19T04:46:53;18.60;99.90
9658;DHT22;4867;48.112;11.622;2022-08-19T04:49:21;18.60;99.90
9658;DHT22;4867;48.112;11.622;2022-08-19T04:51:53;18.60;99.90
9658;DHT22;4867;48.112;11.622;2022-08-19T04:54:23;18.60;99.90
9658;DHT22;4867;48.112;11.622;2022-08-19T04:57:06;18.70;99.90
9658;DHT22;4867;48.112;11.622;2022-08-19T04:59:36;18.70;99.90
9658;DHT22;4867;48.112;11.622;2022-08-19T05:02:04;18.70;99.90
9658;DHT22;4867;48.112;11.622;2022-08-19T05:04:32;18.70;99.90
9658;DHT22;4867;48.112;11.622;2022-08-19T05:07:00;18.70;99.90
9658;DHT22;4867;48.112;11.622;2022-08-19T05:09:29;18.70;99.90
9658;DHT22;4867;48.112;11.622;2022-08-19T05:12:17;18.70;99.90
9658;DHT22;4867;48.112;11.622;2022-08-19T05:14:45;18.70;99.90
9658;DHT22;4867;48.112;11.622;2022-08-19T05:17:17;18.70;99.90
9658;DHT22;4867;48.112;11.622;2022-08-19T05:20:06;18.70;99.90
9658;DHT22;4867;48.112;11.622;2022-08-19T05:22:52;18.80;99.90
9658;DHT22;4867;48.112;11.622;2022-08-19T05:25:21;18.80;99.90
9658;DHT22;4867;48.112;11.622;2022-08-19T05:27:50;18.80;99.90
9658;DHT22;4867;48.112;11.622;2022-08-19T05:30:17;18.80;99.90
9658;DHT22;4867;48.112;11.622;2022-08-19T05:32:59;18.80;99.90
9658;DHT22;4867;48.112;11.622;2022-08-19T05:35:26;18.80;99.90
9658;DHT22;4867;48.112;11.622;2022-08-19T05:38:00;18.80;99.90
9658;DHT22;4867;48.112;11.622;2022-08-19T05:40:27;18.80;99.90
9658;DHT22;4867;48.112;11.622;2022-08-19T05:42:54;18.80;99.90
9658;DHT22;4867;48.112;11.622;2022-08-19T05:45:22;18.80;99.90
9658;DHT22;4867;48.112;11.622;2022-08-19T05:47:48;18.90;99.90
9658;DHT22;4867;48.112;11.622;2022-08-19T05:50:16;19.00;99.90
9658;DHT22;4867;48.112;11.622;2022-08-19T05:52:44;19.00;99.90
9658;DHT22;4867;48.112;11.622;2022-08-19T05:55:16;19.00;99.90
9658;DHT22;4867;48.112;11.622;2022-08-19T05:57:43;19.00;99.90
9658;DHT22;4867;48.112;11.622;2022-08-19T06:00:11;19.00;99.90
9658;DHT22;4867;48.112;11.622;2022-08-19T06:02:39;19.00;99.90
9658;DHT22;4867;48.112;11.622;2022-08-19T06:05:07;19.00;99.90
9658;DHT22;4867;48.112;11.622;2022-08-19T06:07:37;19.00;99.90
9658;DHT22;4867;48.112;11.622;2022-08-19T06:10:08;18.90;99.90
9658;DHT22;4867;48.112;11.622;2022-08-19T06:12:36;19.00;99.90
9658;DHT22;4867;48.112;11.622;2022-08-19T06:15:09;19.00;99.90
9658;DHT22;4867;48.112;11.622;2022-08-19T06:17:36;19.00;99.90
9658;DHT22;4867;48.112;11.622;2022-08-19T06:20:06;19.00;99.90
9658;DHT22;4867;48.112;11.622;2022-08-19T06:22:42;19.00;99.90
9658;DHT22;4867;48.112;11.622;2022-08-19T06:25:10;19.00;99.90
9658;DHT22;4867;48.112;11.622;2022-08-19T06:27:38;18.90;99.90
9658;DHT22;4867;48.112;11.622;2022-08-19T06:30:25;18.90;99.90
9658;DHT22;4867;48.112;11.622;2022-08-19T06:32:52;18.90;99.90
9658;DHT22;4867;48.112;11.622;2022-08-19T06:35:19;18.90;99.90
9658;DHT22;4867;48.112;11.622;2022-08-19T06:37:47;18.90;99.90
9658;DHT22;4867;48.112;11.622;2022-08-19T06:40:14;18.90;99.90
9658;DHT22;4867;48.112;11.622;2022-08-19T06:42:41;19.00;99.90
9658;DHT22;4867;48.112;11.622;2022-08-19T06:45:20;19.00;99.90
9658;DHT22;4867;48.112;11.622;2022-08-19T06:47:51;19.00;99.90
9658;DHT22;4867;48.112;11.622;2022-08-19T06:50:21;19.00;99.90
9658;DHT22;4867;48.112;11.622;2022-08-19T06:52:51;19.00;99.90
9658;DHT22;4867;48.112;11.622;2022-08-19T06:55:19;19.00;99.90
9658;DHT22;4867;48.112;11.622;2022-08-19T06:57:46;19.00;99.90
9658;DHT22;4867;48.112;11.622;2022-08-19T07:00:17;19.10;99.90
9658;DHT22;4867;48.112;11.622;2022-08-19T07:02:44;19.20;99.90
9658;DHT22;4867;48.112;11.622;2022-08-19T07:05:22;19.30;99.90
9658;DHT22;4867;48.112;11.622;2022-08-19T07:07:49;19.30;99.90
9658;DHT22;4867;48.112;11.622;2022-08-19T07:10:17;19.30;99.90
9658;DHT22;4867;48.112;11.622;2022-08-19T07:12:45;19.40;99.90
9658;DHT22;4867;48.112;11.622;2022-08-19T07:15:13;19.40;99.90
9658;DHT22;4867;48.112;11.622;2022-08-19T07:17:39;19.50;99.90
9658;DHT22;4867;48.112;11.622;2022-08-19T07:20:08;19.60;99.90
9658;DHT22;4867;48.112;11.622;2022-08-19T07:22:37;19.70;99.90
9658;DHT22;4867;48.112;11.622;2022-08-19T07:25:08;19.80;99.90
9658;DHT22;4867;48.112;11.622;2022-08-19T07:27:37;19.60;99.90
9658;DHT22;4867;48.112;11.622;2022-08-19T07:30:07;19.80;99.90
9658;DHT22;4867;48.112;11.622;2022-08-19T07:32:38;19.80;99.90
9658;DHT22;4867;48.112;11.622;2022-08-19T07:35:06;19.90;99.90
9658;DHT22;4867;48.112;11.622;2022-08-19T07:37:33;19.90;99.90
9658;DHT22;4867;48.112;11.622;2022-08-19T07:40:04;20.00;99.90
9658;DHT22;4867;48.112;11.622;2022-08-19T07:42:31;20.00;99.90
9658;DHT22;4867;48.112;11.622;2022-08-19T07:44:58;20.00;99.90
9658;DHT22;4867;48.112;11.622;2022-08-19T07:47:25;20.00;99.90
9658;DHT22;4867;48.112;11.622;2022-08-19T07:50:15;19.90;99.90
9658;DHT22;4867;48.112;11.622;2022-08-19T07:52:42;19.90;99.90
9658;DHT22;4867;48.112;11.622;2022-08-19T07:55:17;19.90;99.90
9658;DHT22;4867;48.112;11.622;2022-08-19T07:58:04;19.90;99.90
9658;DHT22;4867;48.112;11.622;2022-08-19T08:00:31;19.90;99.90
9658;DHT22;4867;48.112;11.622;2022-08-19T08:02:58;20.00;99.90
9658;DHT22;4867;48.112;11.622;2022-08-19T08:05:25;20.00;99.90
9658;DHT22;4867;48.112;11.622;2022-08-19T08:08:13;20.00;99.90
9658;DHT22;4867;48.112;11.622;2022-08-19T08:11:18;19.90;99.90
9658;DHT22;4867;48.112;11.622;2022-08-19T08:13:47;19.90;99.90
9658;DHT22;4867;48.112;11.622;2022-08-19T08:16:28;19.90;99.90
9658;DHT22;4867;48.112;11.622;2022-08-19T08:18:58;19.90;99.90
9658;DHT22;4867;48.112;11.622;2022-08-19T08:21:25;19.80;99.90
9658;DHT22;4867;48.112;11.622;2022-08-19T08:23:55;19.80;99.90
9658;DHT22;4867;48.112;11.622;2022-08-19T08:26:23;19.90;99.90
9658;DHT22;4867;48.112;11.622;2022-08-19T08:28:50;19.80;99.90
9658;DHT22;4867;48.112;11.622;2022-08-19T08:31:21;19.70;99.90
9658;DHT22;4867;48.112;11.622;2022-08-19T08:33:49;19.70;99.90
9658;DHT22;4867;48.112;11.622;2022-08-19T08:36:16;19.80;99.90
9658;DHT22;4867;48.112;11.622;2022-08-19T08:38:44;19.80;99.90
9658;DHT22;4867;48.112;11.622;2022-08-19T08:47:18;19.70;99.90
9658;DHT22;4867;48.112;11.622;2022-08-19T08:50:07;19.60;99.90
9658;DHT22;4867;48.112;11.622;2022-08-19T08:52:42;19.60;99.90
9658;DHT22;4867;48.112;11.622;2022-08-19T08:55:26;19.60;99.90
9658;DHT22;4867;48.112;11.622;2022-08-19T08:58:12;19.50;99.90
9658;DHT22;4867;48.112;11.622;2022-08-19T09:00:45;19.50;99.90
9658;DHT22;4867;48.112;11.622;2022-08-19T09:05:56;19.50;99.90
9658;DHT22;4867;48.112;11.622;2022-08-19T09:09:05;19.40;99.90
9658;DHT22;4867;48.112;11.622;2022-08-19T09:14:53;19.50;99.90
9658;DHT22;4867;48.112;11.622;2022-08-19T09:17:31;19.50;99.90
9658;DHT22;4867;48.112;11.622;2022-08-19T09:20:23;19.50;99.90
9658;DHT22;4867;48.112;11.622;2022-08-19T09:22:52;19.50;99.90
9658;DHT22;4867;48.112;11.622;2022-08-19T09:25:21;19.50;99.90
9658;DHT22;4867;48.112;11.622;2022-08-19T09:27:54;19.50;99.90
9658;DHT22;4867;48.112;11.622;2022-08-19T09:30:31;19.60;99.90
9658;DHT22;4867;48.112;11.622;2022-08-19T09:33:00;19.70;99.90
9658;DHT22;4867;48.112;11.622;2022-08-19T09:35:29;19.70;99.90
9658;DHT22;4867;48.112;11.622;2022-08-19T09:37:58;19.70;99.90
9658;DHT22;4867;48.112;11.622;2022-08-19T09:40:30;19.80;99.90
9658;DHT22;4867;48.112;11.622;2022-08-19T09:43:03;19.90;99.90
9658;DHT22;4867;48.112;11.622;2022-08-19T09:45:39;20.00;99.90
9658;DHT22;4867;48.112;11.622;2022-08-19T09:48:05;20.10;99.90
9658;DHT22;4867;48.112;11.622;2022-08-19T09:50:35;20.30;99.90
9658;DHT22;4867;48.112;11.622;2022-08-19T09:53:18;20.50;99.90
9658;DHT22;4867;48.112;11.622;2022-08-19T09:55:45;20.70;99.90
9658;DHT22;4867;48.112;11.622;2022-08-19T09:58:11;20.80;99.90
9658;DHT22;4867;48.112;11.622;2022-08-19T10:00:39;21.00;99.90
9658;DHT22;4867;48.112;11.622;2022-08-19T10:03:06;21.10;99.90
9658;DHT22;4867;48.112;11.622;2022-08-19T10:05:34;21.20;99.90
9658;DHT22;4867;48.112;11.622;2022-08-19T10:08:32;21.40;99.90
9658;DHT22;4867;48.112;11.622;2022-08-19T10:11:00;21.50;99.90
9658;DHT22;4867;48.112;11.622;2022-08-19T10:13:48;21.70;99.90
9658;DHT22;4867;48.112;11.622;2022-08-19T10:16:21;21.90;99.90
9658;DHT22;4867;48.112;11.622;2022-08-19T10:18:54;22.00;99.90
9658;DHT22;4867;48.112;11.622;2022-08-19T10:21:28;22.10;99.90
9658;DHT22;4867;48.112;11.622;2022-08-19T10:24:01;22.20;99.90
9658;DHT22;4867;48.112;11.622;2022-08-19T10:26:32;22.30;99.90
9658;DHT22;4867;48.112;11.622;2022-08-19T10:29:00;22.40;99.90
9658;DHT22;4867;48.112;11.622;2022-08-19T10:31:29;22.40;99.90
9658;DHT22;4867;48.112;11.622;2022-08-19T10:34:16;22.50;99.90
9658;DHT22;4867;48.112;11.622;2022-08-19T10:36:55;22.60;99.90
9658;DHT22;4867;48.112;11.622;2022-08-19T10:39:29;22.70;99.90
9658;DHT22;4867;48.112;11.622;2022-08-19T10:42:08;22.80;99.90
9658;DHT22;4867;48.112;11.622;2022-08-19T10:44:37;22.70;99.90
9658;DHT22;4867;48.112;11.622;2022-08-19T10:47:04;22.70;99.90
9658;DHT22;4867;48.112;11.622;2022-08-19T10:49:52;22.80;99.90
9658;DHT22;4867;48.112;11.622;2022-08-19T10:52:40;22.80;99.90
9658;DHT22;4867;48.112;11.622;2022-08-19T10:55:18;22.90;99.90
9658;DHT22;4867;48.112;11.622;2022-08-19T10:58:04;23.10;99.90
9658;DHT22;4867;48.112;11.622;2022-08-19T11:00:36;23.40;99.90
9658;DHT22;4867;48.112;11.622;2022-08-19T11:03:03;23.70;99.90
9658;DHT22;4867;48.112;11.622;2022-08-19T11:05:30;23.80;99.90
9658;DHT22;4867;48.112;11.622;2022-08-19T11:08:05;23.90;99.90
9658;DHT22;4867;48.112;11.622;2022-08-19T11:10:51;23.70;99.90
9658;DHT22;4867;48.112;11.622;2022-08-19T11:13:20;23.30;99.90
9658;DHT22;4867;48.112;11.622;2022-08-19T11:15:47;23.10;99.90
9658;DHT22;4867;48.112;11.622;2022-08-19T11:18:14;23.10;99.90
9658;DHT22;4867;48.112;11.622;2022-08-19T11:20:43;23.20;99.90
9658;DHT22;4867;48.112;11.622;2022-08-19T11:23:10;23.10;99.90
9658;DHT22;4867;48.112;11.622;2022-08-19T11:25:38;23.20;99.90
9658;DHT22;4867;48.112;11.622;2022-08-19T11:28:05;23.40;99.90
9658;DHT22;4867;48.112;11.622;2022-08-19T11:30:32;23.50;99.90
9658;DHT22;4867;48.112;11.622;2022-08-19T11:33:00;23.70;99.90
9658;DHT22;4867;48.112;11.622;2022-08-19T11:35:27;23.80;99.90
9658;DHT22;4867;48.112;11.622;2022-08-19T11:37:54;23.90;99.90
9658;DHT22;4867;48.112;11.622;2022-08-19T11:40:22;23.70;99.90
9658;DHT22;4867;48.112;11.622;2022-08-19T11:42:49;23.60;99.90
9658;DHT22;4867;48.112;11.622;2022-08-19T11:45:27;23.40;99.90
9658;DHT22;4867;48.112;11.622;2022-08-19T11:47:55;23.20;99.90
9658;DHT22;4867;48.112;11.622;2022-08-19T11:50:23;23.00;99.90
9658;DHT22;4867;48.112;11.622;2022-08-19T11:52:50;22.60;99.90
9658;DHT22;4867;48.112;11.622;2022-08-19T11:55:20;22.30;99.90
9658;DHT22;4867;48.112;11.622;2022-08-19T11:57:47;22.20;99.90
9658;DHT22;4867;48.112;11.622;2022-08-19T12:00:15;22.20;99.90
9658;DHT22;4867;48.112;11.622;2022-08-19T12:02:42;22.30;99.90
9658;DHT22;4867;48.112;11.622;2022-08-19T12:05:09;22.30;99.90
9658;DHT22;4867;48.112;11.622;2022-08-19T12:07:40;22.30;99.90
9658;DHT22;4867;48.112;11.622;2022-08-19T12:10:10;22.10;99.90
9658;DHT22;4867;48.112;11.622;2022-08-19T12:12:37;22.00;99.90
9658;DHT22;4867;48.112;11.622;2022-08-19T12:15:09;21.90;99.90
9658;DHT22;4867;48.112;11.622;2022-08-19T12:17:38;21.80;99.90
9658;DHT22;4867;48.112;11.622;2022-08-19T12:20:06;21.80;99.90
9658;DHT22;4867;48.112;11.622;2022-08-19T12:22:38;21.80;99.90
9658;DHT22;4867;48.112;11.622;2022-08-19T12:25:09;21.90;99.90
9658;DHT22;4867;48.112;11.622;2022-08-19T12:27:37;22.00;99.90
9658;DHT22;4867;48.112;11.622;2022-08-19T12:30:09;21.90;99.90
9658;DHT22;4867;48.112;11.622;2022-08-19T12:32:37;21.80;99.90
9658;DHT22;4867;48.112;11.622;2022-08-19T12:35:06;21.90;99.90
9658;DHT22;4867;48.112;11.622;2022-08-19T12:37:33;22.00;99.90
9658;DHT22;4867;48.112;11.622;2022-08-19T12:40:00;21.90;99.90
9658;DHT22;4867;48.112;11.622;2022-08-19T12:42:27;21.90;99.90
9658;DHT22;4867;48.112;11.622;2022-08-19T12:44:56;21.90;99.90
9658;DHT22;4867;48.112;11.622;2022-08-19T12:47:23;21.80;99.90
9658;DHT22;4867;48.112;11.622;2022-08-19T12:49:50;21.90;99.90
9658;DHT22;4867;48.112;11.622;2022-08-19T12:52:23;22.00;99.90
9658;DHT22;4867;48.112;11.622;2022-08-19T12:54:52;22.10;99.90
9658;DHT22;4867;48.112;11.622;2022-08-19T12:57:26;22.20;99.90
9658;DHT22;4867;48.112;11.622;2022-08-19T13:00:20;22.40;99.90
9658;DHT22;4867;48.112;11.622;2022-08-19T13:02:50;22.50;99.90
9658;DHT22;4867;48.112;11.622;2022-08-19T13:05:20;22.50;99.90
9658;DHT22;4867;48.112;11.622;2022-08-19T13:07:51;22.50;99.90
9658;DHT22;4867;48.112;11.622;2022-08-19T13:10:20;22.50;99.90
9658;DHT22;4867;48.112;11.622;2022-08-19T13:12:49;22.50;99.90
9658;DHT22;4867;48.112;11.622;2022-08-19T13:15:17;22.60;99.90
9658;DHT22;4867;48.112;11.622;2022-08-19T13:17:51;22.70;99.90
9658;DHT22;4867;48.112;11.622;2022-08-19T13:20:20;23.00;99.90
9658;DHT22;4867;48.112;11.622;2022-08-19T13:22:48;23.10;99.90
9658;DHT22;4867;48.112;11.622;2022-08-19T13:25:16;23.10;99.90
9658;DHT22;4867;48.112;11.622;2022-08-19T13:27:47;23.10;99.90
9658;DHT22;4867;48.112;11.622;2022-08-19T13:30:16;23.20;99.90
9658;DHT22;4867;48.112;11.622;2022-08-19T13:33:01;23.10;99.90
9658;DHT22;4867;48.112;11.622;2022-08-19T13:35:43;23.40;99.90
9658;DHT22;4867;48.112;11.622;2022-08-19T13:38:11;23.60;99.90
9658;DHT22;4867;48.112;11.622;2022-08-19T13:40:38;23.90;99.90
9658;DHT22;4867;48.112;11.622;2022-08-19T13:43:07;23.60;99.90
9658;DHT22;4867;48.112;11.622;2022-08-19T13:45:50;23.40;99.90
9658;DHT22;4867;48.112;11.622;2022-08-19T13:48:19;23.20;99.90
9658;DHT22;4867;48.112;11.622;2022-08-19T13:50:46;23.00;99.90
9658;DHT22;4867;48.112;11.622;2022-08-19T13:53:16;22.90;99.90
9658;DHT22;4867;48.112;11.622;2022-08-19T13:55:44;23.10;99.90
9658;DHT22;4867;48.112;11.622;2022-08-19T13:58:11;23.60;99.90
9658;DHT22;4867;48.112;11.622;2022-08-19T14:00:42;23.20;99.90
9658;DHT22;4867;48.112;11.622;2022-08-19T14:03:11;23.10;99.90
9658;DHT22;4867;48.112;11.622;2022-08-19T14:05:39;23.00;99.90
9658;DHT22;4867;48.112;11.622;2022-08-19T14:08:06;23.20;99.90
9658;DHT22;4867;48.112;11.622;2022-08-19T14:10:33;23.10;99.90
9658;DHT22;4867;48.112;11.622;2022-08-19T14:13:02;23.00;99.90
9658;DHT22;4867;48.112;11.622;2022-08-19T14:15:29;23.00;99.90
9658;DHT22;4867;48.112;11.622;2022-08-19T14:17:56;22.90;99.90
9658;DHT22;4867;48.112;11.622;2022-08-19T14:20:23;22.90;99.90
9658;DHT22;4867;48.112;11.622;2022-08-19T14:22:52;23.10;99.90
9658;DHT22;4867;48.112;11.622;2022-08-19T14:25:23;23.10;99.90
9658;DHT22;4867;48.112;11.622;2022-08-19T14:27:51;23.00;99.90
9658;DHT22;4867;48.112;11.622;2022-08-19T14:30:22;23.10;99.90
9658;DHT22;4867;48.112;11.622;2022-08-19T14:32:49;23.30;99.90
9658;DHT22;4867;48.112;11.622;2022-08-19T14:35:16;23.70;99.90
9658;DHT22;4867;48.112;11.622;2022-08-19T14:37:45;23.80;99.90
9658;DHT22;4867;48.112;11.622;2022-08-19T14:40:15;24.00;99.90
9658;DHT22;4867;48.112;11.622;2022-08-19T14:42:43;24.10;99.90
9658;DHT22;4867;48.112;11.622;2022-08-19T14:45:11;24.10;99.90
9658;DHT22;4867;48.112;11.622;2022-08-19T14:47:38;23.80;99.90
9658;DHT22;4867;48.112;11.622;2022-08-19T14:50:09;23.60;99.90
9658;DHT22;4867;48.112;11.622;2022-08-19T14:52:48;23.30;99.90
9658;DHT22;4867;48.112;11.622;2022-08-19T14:55:16;23.10;99.90
9658;DHT22;4867;48.112;11.622;2022-08-19T14:57:44;23.10;99.90
9658;DHT22;4867;48.112;11.622;2022-08-19T15:00:12;22.90;99.90
9658;DHT22;4867;48.112;11.622;2022-08-19T15:02:41;22.90;99.90
9658;DHT22;4867;48.112;11.622;2022-08-19T15:05:08;22.90;99.90
9658;DHT22;4867;48.112;11.622;2022-08-19T15:07:37;22.90;99.90
9658;DHT22;4867;48.112;11.622;2022-08-19T15:10:06;22.90;99.90
9658;DHT22;4867;48.112;11.622;2022-08-19T15:12:35;22.80;99.90
9658;DHT22;4867;48.112;11.622;2022-08-19T15:15:02;22.90;99.90
9658;DHT22;4867;48.112;11.622;2022-08-19T15:17:29;22.90;99.90
9658;DHT22;4867;48.112;11.622;2022-08-19T15:20:19;22.70;99.90
9658;DHT22;4867;48.112;11.622;2022-08-19T15:22:47;22.60;99.90
9658;DHT22;4867;48.112;11.622;2022-08-19T15:25:16;22.70;99.90
9658;DHT22;4867;48.112;11.622;2022-08-19T15:27:44;22.60;99.90
9658;DHT22;4867;48.112;11.622;2022-08-19T15:30:17;22.70;99.90
9658;DHT22;4867;48.112;11.622;2022-08-19T15:32:45;22.50;99.90
9658;DHT22;4867;48.112;11.622;2022-08-19T15:35:15;22.40;99.90
9658;DHT22;4867;48.112;11.622;2022-08-19T15:37:47;22.40;99.90
9658;DHT22;4867;48.112;11.622;2022-08-19T15:40:14;22.10;99.90
9658;DHT22;4867;48.112;11.622;2022-08-19T15:42:42;21.70;99.90
9658;DHT22;4867;48.112;11.622;2022-08-19T15:45:11;21.40;99.90
9658;DHT22;4867;48.112;11.622;2022-08-19T15:47:38;21.00;99.90
9658;DHT22;4867;48.112;11.622;2022-08-19T15:50:12;20.70;99.90
9658;DHT22;4867;48.112;11.622;2022-08-19T15:55:25;20.60;99.90
9658;DHT22;4867;48.112;11.622;2022-08-19T15:58:05;20.70;99.90
9658;DHT22;4867;48.112;11.622;2022-08-19T16:01:01;20.80;99.90
9658;DHT22;4867;48.112;11.622;2022-08-19T16:03:50;20.80;99.90
9658;DHT22;4867;48.112;11.622;2022-08-19T16:06:48;20.80;99.90
9658;DHT22;4867;48.112;11.622;2022-08-19T16:09:20;21.00;99.90
9658;DHT22;4867;48.112;11.622;2022-08-19T16:11:55;21.00;99.90
9658;DHT22;4867;48.112;11.622;2022-08-19T16:14:30;20.90;99.90
9658;DHT22;4867;48.112;11.622;2022-08-19T16:16:57;21.00;99.90
9658;DHT22;4867;48.112;11.622;2022-08-19T16:19:24;21.00;99.90
9658;DHT22;4867;48.112;11.622;2022-08-19T16:21:53;21.00;99.90
9658;DHT22;4867;48.112;11.622;2022-08-19T16:24:25;21.30;99.90
9658;DHT22;4867;48.112;11.622;2022-08-19T16:26:52;21.40;99.90
9658;DHT22;4867;48.112;11.622;2022-08-19T16:29:20;21.60;99.90
9658;DHT22;4867;48.112;11.622;2022-08-19T16:32:10;21.80;99.90
9658;DHT22;4867;48.112;11.622;2022-08-19T16:34:39;21.60;99.90